sensor_id;sensor_type;location;lat;lon;timestamp;temperature;humidity
65478;SHT31;53678;39.642;22.430;2022-08-04T00:00:43;26.49;52.86
65478;SHT31;53678;39.642;22.430;2022-08-04T00:03:13;26.45;53.08
65478;SHT31;53678;39.642;22.430;2022-08-04T00:11:06;26.42;53.00
65478;SHT31;53678;39.642;22.430;2022-08-04T00:13:36;26.52;52.65
65478;SHT31;53678;39.642;22.430;2022-08-04T00:16:09;26.60;52.53
65478;SHT31;53678;39.642;22.430;2022-08-04T00:18:40;26.53;52.82
65478;SHT31;53678;39.642;22.430;2022-08-04T00:21:10;26.49;53.04
65478;SHT31;53678;39.642;22.430;2022-08-04T00:23:38;26.38;53.33
65478;SHT31;53678;39.642;22.430;2022-08-04T00:26:04;26.34;53.52
65478;SHT31;53678;39.642;22.430;2022-08-04T00:28:30;26.36;53.46
65478;SHT31;53678;39.642;22.430;2022-08-04T00:30:56;26.31;53.87
65478;SHT31;53678;39.642;22.430;2022-08-04T00:33:22;26.31;53.99
65478;SHT31;53678;39.642;22.430;2022-08-04T00:35:49;26.32;54.04
65478;SHT31;53678;39.642;22.430;2022-08-04T00:38:16;26.28;54.15
65478;SHT31;53678;39.642;22.430;2022-08-04T00:43:42;26.25;54.13
65478;SHT31;53678;39.642;22.430;2022-08-04T00:54:11;26.27;54.13
65478;SHT31;53678;39.642;22.430;2022-08-04T01:10:37;25.76;56.30
65478;SHT31;53678;39.642;22.430;2022-08-04T01:13:10;25.86;56.27
65478;SHT31;53678;39.642;22.430;2022-08-04T01:15:59;25.79;56.16
65478;SHT31;53678;39.642;22.430;2022-08-04T01:21:23;25.71;56.34
65478;SHT31;53678;39.642;22.430;2022-08-04T01:29:14;25.73;55.91
65478;SHT31;53678;39.642;22.430;2022-08-04T01:31:59;25.38;56.55
65478;SHT31;53678;39.642;22.430;2022-08-04T01:34:29;25.29;56.80
65478;SHT31;53678;39.642;22.430;2022-08-04T01:39:59;25.51;55.97
65478;SHT31;53678;39.642;22.430;2022-08-04T01:42:28;25.39;55.78
65478;SHT31;53678;39.642;22.430;2022-08-04T01:44:57;25.43;55.58
65478;SHT31;53678;39.642;22.430;2022-08-04T01:47:28;25.29;55.61
65478;SHT31;53678;39.642;22.430;2022-08-04T01:49:54;25.47;54.91
65478;SHT31;53678;39.642;22.430;2022-08-04T01:52:23;25.39;54.78
65478;SHT31;53678;39.642;22.430;2022-08-04T01:54:52;25.26;54.92
65478;SHT31;53678;39.642;22.430;2022-08-04T01:57:18;25.29;54.94
65478;SHT31;53678;39.642;22.430;2022-08-04T01:59:46;25.32;54.70
65478;SHT31;53678;39.642;22.430;2022-08-04T02:02:13;25.26;55.06
65478;SHT31;53678;39.642;22.430;2022-08-04T02:04:40;25.11;54.89
65478;SHT31;53678;39.642;22.430;2022-08-04T02:21:29;24.99;54.64
65478;SHT31;53678;39.642;22.430;2022-08-04T02:24:06;24.87;54.80
65478;SHT31;53678;39.642;22.430;2022-08-04T02:26:33;24.71;54.79
65478;SHT31;53678;39.642;22.430;2022-08-04T02:34:42;24.63;54.62
65478;SHT31;53678;39.642;22.430;2022-08-04T02:37:09;24.77;54.47
65478;SHT31;53678;39.642;22.430;2022-08-04T02:39:36;24.92;54.19
65478;SHT31;53678;39.642;22.430;2022-08-04T02:42:04;24.90;54.11
65478;SHT31;53678;39.642;22.430;2022-08-04T02:44:30;24.99;54.00
65478;SHT31;53678;39.642;22.430;2022-08-04T02:46:59;25.07;53.93
65478;SHT31;53678;39.642;22.430;2022-08-04T02:49:25;25.07;53.91
65478;SHT31;53678;39.642;22.430;2022-08-04T02:51:53;25.16;53.81
65478;SHT31;53678;39.642;22.430;2022-08-04T02:54:26;25.35;53.54
65478;SHT31;53678;39.642;22.430;2022-08-04T02:56:54;25.35;53.63
65478;SHT31;53678;39.642;22.430;2022-08-04T02:59:26;25.33;53.83
65478;SHT31;53678;39.642;22.430;2022-08-04T03:01:55;25.36;53.61
65478;SHT31;53678;39.642;22.430;2022-08-04T03:23:28;25.42;54.26
65478;SHT31;53678;39.642;22.430;2022-08-04T03:38:44;25.02;55.38
65478;SHT31;53678;39.642;22.430;2022-08-04T04:07:27;25.76;54.29
65478;SHT31;53678;39.642;22.430;2022-08-04T04:10:34;26.07;53.90
65478;SHT31;53678;39.642;22.430;2022-08-04T04:13:08;26.79;52.24
65478;SHT31;53678;39.642;22.430;2022-08-04T04:21:39;27.31;51.69
65478;SHT31;53678;39.642;22.430;2022-08-04T04:27:08;28.03;50.43
65478;SHT31;53678;39.642;22.430;2022-08-04T04:29:59;28.95;48.03
65478;SHT31;53678;39.642;22.430;2022-08-04T04:36:08;27.18;53.07
65478;SHT31;53678;39.642;22.430;2022-08-04T04:46:49;29.28;48.48
65478;SHT31;53678;39.642;22.430;2022-08-04T04:49:30;29.83;47.47
65478;SHT31;53678;39.642;22.430;2022-08-04T04:52:23;30.29;46.44
65478;SHT31;53678;39.642;22.430;2022-08-04T04:57:36;30.94;44.80
65478;SHT31;53678;39.642;22.430;2022-08-04T05:00:06;29.09;49.95
65478;SHT31;53678;39.642;22.430;2022-08-04T05:13:44;32.19;42.01
65478;SHT31;53678;39.642;22.430;2022-08-04T05:16:19;32.04;42.39
65478;SHT31;53678;39.642;22.430;2022-08-04T05:18:55;31.48;43.04
65478;SHT31;53678;39.642;22.430;2022-08-04T05:24:09;32.15;42.73
65478;SHT31;53678;39.642;22.430;2022-08-04T05:26:43;31.35;45.00
65478;SHT31;53678;39.642;22.430;2022-08-04T05:29:15;30.55;46.29
65478;SHT31;53678;39.642;22.430;2022-08-04T05:31:48;31.57;43.78
65478;SHT31;53678;39.642;22.430;2022-08-04T05:34:23;32.97;41.28
65478;SHT31;53678;39.642;22.430;2022-08-04T05:36:53;32.84;41.36
65478;SHT31;53678;39.642;22.430;2022-08-04T05:39:23;32.94;41.38
65478;SHT31;53678;39.642;22.430;2022-08-04T05:41:50;33.21;40.79
65478;SHT31;53678;39.642;22.430;2022-08-04T05:44:18;33.38;40.61
65478;SHT31;53678;39.642;22.430;2022-08-04T05:46:50;33.52;40.28
65478;SHT31;53678;39.642;22.430;2022-08-04T05:49:16;33.15;39.94
65478;SHT31;53678;39.642;22.430;2022-08-04T05:51:44;32.49;41.08
65478;SHT31;53678;39.642;22.430;2022-08-04T05:54:12;32.47;41.12
65478;SHT31;53678;39.642;22.430;2022-08-04T05:56:39;32.40;41.38
65478;SHT31;53678;39.642;22.430;2022-08-04T05:59:06;32.29;41.43
65478;SHT31;53678;39.642;22.430;2022-08-04T06:01:34;32.61;41.02
65478;SHT31;53678;39.642;22.430;2022-08-04T06:04:01;32.46;41.27
65478;SHT31;53678;39.642;22.430;2022-08-04T06:06:29;32.44;41.22
65478;SHT31;53678;39.642;22.430;2022-08-04T06:08:56;32.22;41.43
65478;SHT31;53678;39.642;22.430;2022-08-04T06:11:24;32.40;41.09
65478;SHT31;53678;39.642;22.430;2022-08-04T06:14:02;31.69;41.95
65478;SHT31;53678;39.642;22.430;2022-08-04T06:16:34;30.78;44.29
65478;SHT31;53678;39.642;22.430;2022-08-04T06:19:12;30.96;44.00
65478;SHT31;53678;39.642;22.430;2022-08-04T06:21:41;31.06;44.50
65478;SHT31;53678;39.642;22.430;2022-08-04T06:24:11;31.40;44.79
65478;SHT31;53678;39.642;22.430;2022-08-04T06:26:39;31.48;44.44
65478;SHT31;53678;39.642;22.430;2022-08-04T06:29:07;32.05;42.63
65478;SHT31;53678;39.642;22.430;2022-08-04T06:31:43;32.60;41.50
65478;SHT31;53678;39.642;22.430;2022-08-04T06:34:13;32.81;42.04
65478;SHT31;53678;39.642;22.430;2022-08-04T06:36:41;32.06;44.18
65478;SHT31;53678;39.642;22.430;2022-08-04T06:39:09;31.11;45.18
65478;SHT31;53678;39.642;22.430;2022-08-04T06:41:36;30.82;45.83
65478;SHT31;53678;39.642;22.430;2022-08-04T06:44:06;30.01;47.55
65478;SHT31;53678;39.642;22.430;2022-08-04T06:46:34;29.83;47.88
65478;SHT31;53678;39.642;22.430;2022-08-04T06:49:01;29.78;48.15
65478;SHT31;53678;39.642;22.430;2022-08-04T06:51:30;29.66;48.32
65478;SHT31;53678;39.642;22.430;2022-08-04T06:53:57;29.63;48.55
65478;SHT31;53678;39.642;22.430;2022-08-04T06:56:24;29.73;49.12
65478;SHT31;53678;39.642;22.430;2022-08-04T06:58:53;29.29;50.50
65478;SHT31;53678;39.642;22.430;2022-08-04T07:01:20;29.83;49.55
65478;SHT31;53678;39.642;22.430;2022-08-04T07:03:48;30.08;48.26
65478;SHT31;53678;39.642;22.430;2022-08-04T07:06:14;30.08;48.19
65478;SHT31;53678;39.642;22.430;2022-08-04T07:08:41;30.25;48.21
65478;SHT31;53678;39.642;22.430;2022-08-04T07:11:08;30.48;47.94
65478;SHT31;53678;39.642;22.430;2022-08-04T07:13:35;30.80;46.91
65478;SHT31;53678;39.642;22.430;2022-08-04T07:16:01;30.55;47.70
65478;SHT31;53678;39.642;22.430;2022-08-04T07:18:30;30.01;47.35
65478;SHT31;53678;39.642;22.430;2022-08-04T07:20:56;30.55;46.50
65478;SHT31;53678;39.642;22.430;2022-08-04T07:23:24;31.29;45.05
65478;SHT31;53678;39.642;22.430;2022-08-04T07:25:52;31.99;43.05
65478;SHT31;53678;39.642;22.430;2022-08-04T07:28:19;31.90;42.37
65478;SHT31;53678;39.642;22.430;2022-08-04T07:30:47;32.66;41.15
65478;SHT31;53678;39.642;22.430;2022-08-04T07:33:15;32.77;41.52
65478;SHT31;53678;39.642;22.430;2022-08-04T07:35:42;32.91;41.68
65478;SHT31;53678;39.642;22.430;2022-08-04T07:38:08;33.17;40.90
65478;SHT31;53678;39.642;22.430;2022-08-04T07:40:36;32.68;40.68
65478;SHT31;53678;39.642;22.430;2022-08-04T07:43:03;32.64;40.97
65478;SHT31;53678;39.642;22.430;2022-08-04T07:45:30;32.33;41.27
65478;SHT31;53678;39.642;22.430;2022-08-04T07:47:56;32.32;40.93
65478;SHT31;53678;39.642;22.430;2022-08-04T07:50:24;32.25;40.80
65478;SHT31;53678;39.642;22.430;2022-08-04T07:52:50;32.33;40.50
65478;SHT31;53678;39.642;22.430;2022-08-04T07:55:17;32.32;40.24
65478;SHT31;53678;39.642;22.430;2022-08-04T07:57:43;32.43;39.81
65478;SHT31;53678;39.642;22.430;2022-08-04T08:00:11;32.80;39.43
65478;SHT31;53678;39.642;22.430;2022-08-04T08:02:45;33.03;38.96
65478;SHT31;53678;39.642;22.430;2022-08-04T08:05:13;32.73;39.58
65478;SHT31;53678;39.642;22.430;2022-08-04T08:07:39;33.18;38.81
65478;SHT31;53678;39.642;22.430;2022-08-04T08:10:11;33.19;39.20
65478;SHT31;53678;39.642;22.430;2022-08-04T08:12:37;32.90;40.17
65478;SHT31;53678;39.642;22.430;2022-08-04T08:15:06;32.92;39.50
65478;SHT31;53678;39.642;22.430;2022-08-04T08:17:32;32.67;39.83
65478;SHT31;53678;39.642;22.430;2022-08-04T08:20:00;33.05;39.57
65478;SHT31;53678;39.642;22.430;2022-08-04T08:22:26;33.00;39.88
65478;SHT31;53678;39.642;22.430;2022-08-04T08:24:53;33.45;39.14
65478;SHT31;53678;39.642;22.430;2022-08-04T08:27:19;31.30;41.62
65478;SHT31;53678;39.642;22.430;2022-08-04T08:29:45;32.36;40.03
65478;SHT31;53678;39.642;22.430;2022-08-04T08:32:12;32.84;39.04
65478;SHT31;53678;39.642;22.430;2022-08-04T08:34:40;32.44;39.53
65478;SHT31;53678;39.642;22.430;2022-08-04T08:39:57;32.29;40.32
65478;SHT31;53678;39.642;22.430;2022-08-04T08:53:53;32.37;39.97
65478;SHT31;53678;39.642;22.430;2022-08-04T09:07:25;32.94;39.07
65478;SHT31;53678;39.642;22.430;2022-08-04T09:10:18;32.92;39.01
65478;SHT31;53678;39.642;22.430;2022-08-04T09:13:26;32.41;39.53
65478;SHT31;53678;39.642;22.430;2022-08-04T09:16:18;32.39;39.70
65478;SHT31;53678;39.642;22.430;2022-08-04T09:25:12;32.36;39.63
65478;SHT31;53678;39.642;22.430;2022-08-04T09:27:44;32.59;39.43
65478;SHT31;53678;39.642;22.430;2022-08-04T09:30:12;33.05;38.36
65478;SHT31;53678;39.642;22.430;2022-08-04T09:35:36;32.60;38.67
65478;SHT31;53678;39.642;22.430;2022-08-04T09:38:18;32.67;38.25
65478;SHT31;53678;39.642;22.430;2022-08-04T09:41:10;33.03;38.42
65478;SHT31;53678;39.642;22.430;2022-08-04T09:50:14;32.80;36.80
65478;SHT31;53678;39.642;22.430;2022-08-04T09:55:31;32.43;37.21
65478;SHT31;53678;39.642;22.430;2022-08-04T09:58:21;32.47;36.91
65478;SHT31;53678;39.642;22.430;2022-08-04T10:00:55;32.41;37.09
65478;SHT31;53678;39.642;22.430;2022-08-04T10:03:27;32.64;35.93
65478;SHT31;53678;39.642;22.430;2022-08-04T10:11:48;32.49;36.19
65478;SHT31;53678;39.642;22.430;2022-08-04T10:23:09;33.55;34.71
65478;SHT31;53678;39.642;22.430;2022-08-04T10:26:04;33.15;33.83
65478;SHT31;53678;39.642;22.430;2022-08-04T10:28:36;33.01;34.42
65478;SHT31;53678;39.642;22.430;2022-08-04T10:31:06;32.55;35.47
65478;SHT31;53678;39.642;22.430;2022-08-04T10:34:02;32.87;33.93
65478;SHT31;53678;39.642;22.430;2022-08-04T10:36:55;33.25;33.47
65478;SHT31;53678;39.642;22.430;2022-08-04T10:42:28;32.60;34.20
65478;SHT31;53678;39.642;22.430;2022-08-04T10:45:17;32.41;34.55
65478;SHT31;53678;39.642;22.430;2022-08-04T10:47:58;32.32;35.25
65478;SHT31;53678;39.642;22.430;2022-08-04T10:50:27;32.59;33.99
65478;SHT31;53678;39.642;22.430;2022-08-04T10:53:02;33.07;34.23
65478;SHT31;53678;39.642;22.430;2022-08-04T10:55:37;32.92;33.86
65478;SHT31;53678;39.642;22.430;2022-08-04T10:58:10;32.91;33.72
65478;SHT31;53678;39.642;22.430;2022-08-04T11:00:41;32.53;33.61
65478;SHT31;53678;39.642;22.430;2022-08-04T11:03:36;32.80;33.43
65478;SHT31;53678;39.642;22.430;2022-08-04T11:06:03;32.98;33.40
65478;SHT31;53678;39.642;22.430;2022-08-04T11:11:11;33.00;33.29
65478;SHT31;53678;39.642;22.430;2022-08-04T11:16:21;32.78;33.57
65478;SHT31;53678;39.642;22.430;2022-08-04T11:21:25;33.19;32.81
65478;SHT31;53678;39.642;22.430;2022-08-04T11:24:11;33.31;32.42
65478;SHT31;53678;39.642;22.430;2022-08-04T11:26:48;33.38;32.19
65478;SHT31;53678;39.642;22.430;2022-08-04T11:31:48;33.51;32.37
65478;SHT31;53678;39.642;22.430;2022-08-04T11:37:12;33.35;32.54
65478;SHT31;53678;39.642;22.430;2022-08-04T11:39:44;33.66;31.95
65478;SHT31;53678;39.642;22.430;2022-08-04T11:42:26;33.35;32.58
65478;SHT31;53678;39.642;22.430;2022-08-04T11:45:01;33.41;32.46
65478;SHT31;53678;39.642;22.430;2022-08-04T11:47:33;33.51;32.31
65478;SHT31;53678;39.642;22.430;2022-08-04T11:50:13;33.51;32.61
65478;SHT31;53678;39.642;22.430;2022-08-04T11:52:45;33.07;33.17
65478;SHT31;53678;39.642;22.430;2022-08-04T11:55:16;33.08;33.05
65478;SHT31;53678;39.642;22.430;2022-08-04T11:57:46;33.04;33.68
65478;SHT31;53678;39.642;22.430;2022-08-04T12:00:14;33.05;33.17
65478;SHT31;53678;39.642;22.430;2022-08-04T12:05:26;32.84;33.21
65478;SHT31;53678;39.642;22.430;2022-08-04T12:13:40;33.11;32.85
65478;SHT31;53678;39.642;22.430;2022-08-04T12:16:24;33.39;32.13
65478;SHT31;53678;39.642;22.430;2022-08-04T12:19:03;33.46;31.92
65478;SHT31;53678;39.642;22.430;2022-08-04T12:24:04;33.76;31.91
65478;SHT31;53678;39.642;22.430;2022-08-04T12:26:43;33.46;31.86
65478;SHT31;53678;39.642;22.430;2022-08-04T12:29:13;33.36;31.97
65478;SHT31;53678;39.642;22.430;2022-08-04T12:31:46;33.45;31.65
65478;SHT31;53678;39.642;22.430;2022-08-04T12:34:34;33.35;31.77
65478;SHT31;53678;39.642;22.430;2022-08-04T12:37:22;33.42;32.07
65478;SHT31;53678;39.642;22.430;2022-08-04T12:39:52;33.22;32.26
65478;SHT31;53678;39.642;22.430;2022-08-04T12:42:33;33.14;32.33
65478;SHT31;53678;39.642;22.430;2022-08-04T12:45:05;33.18;32.68
65478;SHT31;53678;39.642;22.430;2022-08-04T12:47:34;33.05;32.43
65478;SHT31;53678;39.642;22.430;2022-08-04T12:50:02;33.34;32.09
65478;SHT31;53678;39.642;22.430;2022-08-04T12:52:42;32.97;32.46
65478;SHT31;53678;39.642;22.430;2022-08-04T12:55:10;33.26;32.07
65478;SHT31;53678;39.642;22.430;2022-08-04T12:57:36;33.55;31.65
65478;SHT31;53678;39.642;22.430;2022-08-04T13:00:04;33.68;31.46
65478;SHT31;53678;39.642;22.430;2022-08-04T13:02:37;33.53;30.87
65478;SHT31;53678;39.642;22.430;2022-08-04T13:05:07;33.41;31.14
65478;SHT31;53678;39.642;22.430;2022-08-04T13:07:37;33.42;31.17
65478;SHT31;53678;39.642;22.430;2022-08-04T13:10:15;33.39;31.02
65478;SHT31;53678;39.642;22.430;2022-08-04T13:12:43;33.45;31.50
65478;SHT31;53678;39.642;22.430;2022-08-04T13:15:20;32.76;32.29
65478;SHT31;53678;39.642;22.430;2022-08-04T13:17:59;33.24;31.85
65478;SHT31;53678;39.642;22.430;2022-08-04T13:20:31;33.32;32.03
65478;SHT31;53678;39.642;22.430;2022-08-04T13:23:14;33.52;32.53
65478;SHT31;53678;39.642;22.430;2022-08-04T13:25:43;33.53;32.07
65478;SHT31;53678;39.642;22.430;2022-08-04T13:28:15;33.52;31.94
65478;SHT31;53678;39.642;22.430;2022-08-04T13:30:58;33.74;31.74
65478;SHT31;53678;39.642;22.430;2022-08-04T13:33:30;33.58;32.35
65478;SHT31;53678;39.642;22.430;2022-08-04T13:35:57;33.89;31.28
65478;SHT31;53678;39.642;22.430;2022-08-04T13:38:27;33.90;31.26
65478;SHT31;53678;39.642;22.430;2022-08-04T13:41:02;33.86;31.59
65478;SHT31;53678;39.642;22.430;2022-08-04T13:43:32;33.51;31.64
65478;SHT31;53678;39.642;22.430;2022-08-04T13:46:01;33.49;31.55
65478;SHT31;53678;39.642;22.430;2022-08-04T13:48:39;33.76;31.54
65478;SHT31;53678;39.642;22.430;2022-08-04T13:51:08;33.72;31.35
65478;SHT31;53678;39.642;22.430;2022-08-04T13:53:37;33.68;31.01
65478;SHT31;53678;39.642;22.430;2022-08-04T13:56:08;33.61;31.29
65478;SHT31;53678;39.642;22.430;2022-08-04T13:58:40;33.76;31.26
65478;SHT31;53678;39.642;22.430;2022-08-04T14:01:22;33.68;30.81
65478;SHT31;53678;39.642;22.430;2022-08-04T14:04:19;32.87;32.02
65478;SHT31;53678;39.642;22.430;2022-08-04T14:06:50;33.25;32.12
65478;SHT31;53678;39.642;22.430;2022-08-04T14:09:20;33.65;31.77
65478;SHT31;53678;39.642;22.430;2022-08-04T14:11:49;33.61;31.91
65478;SHT31;53678;39.642;22.430;2022-08-04T14:14:46;33.55;31.80
65478;SHT31;53678;39.642;22.430;2022-08-04T14:19:58;33.51;32.26
65478;SHT31;53678;39.642;22.430;2022-08-04T14:25:13;33.39;32.35
65478;SHT31;53678;39.642;22.430;2022-08-04T14:27:47;33.35;32.36
65478;SHT31;53678;39.642;22.430;2022-08-04T14:30:23;33.25;32.35
65478;SHT31;53678;39.642;22.430;2022-08-04T14:35:23;33.14;32.17
65478;SHT31;53678;39.642;22.430;2022-08-04T14:37:58;33.14;32.09
65478;SHT31;53678;39.642;22.430;2022-08-04T14:40:27;33.11;31.89
65478;SHT31;53678;39.642;22.430;2022-08-04T14:42:53;33.08;32.06
65478;SHT31;53678;39.642;22.430;2022-08-04T14:48:00;33.29;32.17
65478;SHT31;53678;39.642;22.430;2022-08-04T14:53:07;33.22;31.98
65478;SHT31;53678;39.642;22.430;2022-08-04T14:55:35;33.34;31.74
65478;SHT31;53678;39.642;22.430;2022-08-04T14:58:02;33.21;31.60
65478;SHT31;53678;39.642;22.430;2022-08-04T15:00:33;33.31;31.71
65478;SHT31;53678;39.642;22.430;2022-08-04T15:03:05;33.38;31.07
65478;SHT31;53678;39.642;22.430;2022-08-04T15:05:35;33.46;31.17
65478;SHT31;53678;39.642;22.430;2022-08-04T15:08:01;33.51;31.44
65478;SHT31;53678;39.642;22.430;2022-08-04T15:10:27;33.56;31.60
65478;SHT31;53678;39.642;22.430;2022-08-04T15:12:54;33.29;31.59
65478;SHT31;53678;39.642;22.430;2022-08-04T15:15:21;33.19;31.94
65478;SHT31;53678;39.642;22.430;2022-08-04T15:17:48;33.32;31.98
65478;SHT31;53678;39.642;22.430;2022-08-04T15:20:15;33.31;31.75
65478;SHT31;53678;39.642;22.430;2022-08-04T15:22:42;33.17;32.04
65478;SHT31;53678;39.642;22.430;2022-08-04T15:25:08;33.14;32.59
65478;SHT31;53678;39.642;22.430;2022-08-04T15:27:37;33.41;31.97
65478;SHT31;53678;39.642;22.430;2022-08-04T15:30:06;33.39;31.87
65478;SHT31;53678;39.642;22.430;2022-08-04T15:32:42;33.46;31.76
65478;SHT31;53678;39.642;22.430;2022-08-04T15:35:17;33.36;31.88
65478;SHT31;53678;39.642;22.430;2022-08-04T15:40:35;33.39;31.88
65478;SHT31;53678;39.642;22.430;2022-08-04T15:43:45;33.53;31.99
65478;SHT31;53678;39.642;22.430;2022-08-04T15:46:24;33.34;32.23
65478;SHT31;53678;39.642;22.430;2022-08-04T15:49:20;33.24;32.38
65478;SHT31;53678;39.642;22.430;2022-08-04T15:51:46;33.08;32.75
65478;SHT31;53678;39.642;22.430;2022-08-04T15:54:24;33.19;32.11
65478;SHT31;53678;39.642;22.430;2022-08-04T15:56:52;33.12;32.19
65478;SHT31;53678;39.642;22.430;2022-08-04T16:13:16;33.00;32.36
65478;SHT31;53678;39.642;22.430;2022-08-04T16:15:49;32.81;32.61
65478;SHT31;53678;39.642;22.430;2022-08-04T16:20:57;32.73;32.57
65478;SHT31;53678;39.642;22.430;2022-08-04T16:23:54;32.85;32.52
65478;SHT31;53678;39.642;22.430;2022-08-04T16:26:48;32.56;32.91
65478;SHT31;53678;39.642;22.430;2022-08-04T16:29:29;32.59;33.07
65478;SHT31;53678;39.642;22.430;2022-08-04T16:37:01;32.57;33.15
65478;SHT31;53678;39.642;22.430;2022-08-04T16:39:28;32.44;33.09
65478;SHT31;53678;39.642;22.430;2022-08-04T16:41:54;32.32;33.39
65478;SHT31;53678;39.642;22.430;2022-08-04T16:44:34;32.29;33.45
65478;SHT31;53678;39.642;22.430;2022-08-04T16:47:03;32.23;33.63
65478;SHT31;53678;39.642;22.430;2022-08-04T16:49:31;32.22;33.30
65478;SHT31;53678;39.642;22.430;2022-08-04T16:52:05;32.13;33.45
65478;SHT31;53678;39.642;22.430;2022-08-04T16:54:33;32.08;33.57
65478;SHT31;53678;39.642;22.430;2022-08-04T16:57:08;31.90;33.52
65478;SHT31;53678;39.642;22.430;2022-08-04T16:59:35;31.92;33.71
65478;SHT31;53678;39.642;22.430;2022-08-04T17:02:01;31.81;33.55
65478;SHT31;53678;39.642;22.430;2022-08-04T17:04:29;31.71;33.98
65478;SHT31;53678;39.642;22.430;2022-08-04T17:07:04;31.65;34.09
65478;SHT31;53678;39.642;22.430;2022-08-04T17:09:31;31.75;34.19
65478;SHT31;53678;39.642;22.430;2022-08-04T17:11:58;31.64;33.97
65478;SHT31;53678;39.642;22.430;2022-08-04T17:14:28;31.52;34.14
65478;SHT31;53678;39.642;22.430;2022-08-04T17:17:00;31.50;34.21
65478;SHT31;53678;39.642;22.430;2022-08-04T17:19:26;31.40;34.48
65478;SHT31;53678;39.642;22.430;2022-08-04T17:21:56;31.37;34.42
65478;SHT31;53678;39.642;22.430;2022-08-04T17:24:22;31.37;34.45
65478;SHT31;53678;39.642;22.430;2022-08-04T17:26:48;31.34;34.53
65478;SHT31;53678;39.642;22.430;2022-08-04T17:29:14;31.29;34.48
65478;SHT31;53678;39.642;22.430;2022-08-04T17:31:40;31.17;34.79
65478;SHT31;53678;39.642;22.430;2022-08-04T17:34:15;31.11;34.90
65478;SHT31;53678;39.642;22.430;2022-08-04T17:36:46;31.10;35.01
65478;SHT31;53678;39.642;22.430;2022-08-04T17:41:39;31.10;34.98
65478;SHT31;53678;39.642;22.430;2022-08-04T17:44:06;30.99;35.07
65478;SHT31;53678;39.642;22.430;2022-08-04T17:46:45;30.90;35.25
65478;SHT31;53678;39.642;22.430;2022-08-04T17:54:36;30.75;35.66
65478;SHT31;53678;39.642;22.430;2022-08-04T17:57:14;30.59;36.00
65478;SHT31;53678;39.642;22.430;2022-08-04T17:59:53;30.44;36.56
65478;SHT31;53678;39.642;22.430;2022-08-04T18:02:24;30.31;37.05
65478;SHT31;53678;39.642;22.430;2022-08-04T18:04:51;30.21;37.04
65478;SHT31;53678;39.642;22.430;2022-08-04T18:07:19;30.23;37.46
65478;SHT31;53678;39.642;22.430;2022-08-04T18:09:50;30.14;37.80
65478;SHT31;53678;39.642;22.430;2022-08-04T18:12:22;29.98;38.33
65478;SHT31;53678;39.642;22.430;2022-08-04T18:14:52;29.90;38.60
65478;SHT31;53678;39.642;22.430;2022-08-04T18:20:07;29.81;38.94
65478;SHT31;53678;39.642;22.430;2022-08-04T18:22:34;29.53;39.46
65478;SHT31;53678;39.642;22.430;2022-08-04T18:25:00;29.30;39.96
65478;SHT31;53678;39.642;22.430;2022-08-04T18:27:28;29.40;40.07
65478;SHT31;53678;39.642;22.430;2022-08-04T18:29:54;29.43;39.99
65478;SHT31;53678;39.642;22.430;2022-08-04T18:32:20;29.35;40.28
65478;SHT31;53678;39.642;22.430;2022-08-04T18:34:49;29.29;40.24
65478;SHT31;53678;39.642;22.430;2022-08-04T18:37:15;29.28;40.14
65478;SHT31;53678;39.642;22.430;2022-08-04T18:39:41;29.18;40.26
65478;SHT31;53678;39.642;22.430;2022-08-04T18:42:09;29.23;40.15
65478;SHT31;53678;39.642;22.430;2022-08-04T18:44:35;29.29;39.98
65478;SHT31;53678;39.642;22.430;2022-08-04T18:47:01;29.25;39.93
65478;SHT31;53678;39.642;22.430;2022-08-04T18:49:27;29.36;39.81
65478;SHT31;53678;39.642;22.430;2022-08-04T18:51:54;29.20;39.85
65478;SHT31;53678;39.642;22.430;2022-08-04T18:54:21;28.99;40.38
65478;SHT31;53678;39.642;22.430;2022-08-04T18:56:49;28.99;40.47
65478;SHT31;53678;39.642;22.430;2022-08-04T18:59:16;28.91;40.60
65478;SHT31;53678;39.642;22.430;2022-08-04T19:01:42;28.81;40.71
65478;SHT31;53678;39.642;22.430;2022-08-04T19:04:09;28.70;40.90
65478;SHT31;53678;39.642;22.430;2022-08-04T19:06:35;28.84;40.79
65478;SHT31;53678;39.642;22.430;2022-08-04T19:09:02;28.81;41.03
65478;SHT31;53678;39.642;22.430;2022-08-04T19:11:29;28.78;41.37
65478;SHT31;53678;39.642;22.430;2022-08-04T19:13:55;28.35;42.35
65478;SHT31;53678;39.642;22.430;2022-08-04T19:16:21;28.26;42.80
65478;SHT31;53678;39.642;22.430;2022-08-04T19:18:47;28.24;42.94
65478;SHT31;53678;39.642;22.430;2022-08-04T19:21:13;28.32;43.13
65478;SHT31;53678;39.642;22.430;2022-08-04T19:23:38;28.33;43.10
65478;SHT31;53678;39.642;22.430;2022-08-04T19:26:04;28.44;42.92
65478;SHT31;53678;39.642;22.430;2022-08-04T19:28:33;28.50;42.57
65478;SHT31;53678;39.642;22.430;2022-08-04T19:31:02;28.08;43.65
65478;SHT31;53678;39.642;22.430;2022-08-04T19:33:29;28.06;44.12
65478;SHT31;53678;39.642;22.430;2022-08-04T19:35:55;28.09;43.83
65478;SHT31;53678;39.642;22.430;2022-08-04T19:38:21;28.13;43.52
65478;SHT31;53678;39.642;22.430;2022-08-04T19:40:47;28.19;43.91
65478;SHT31;53678;39.642;22.430;2022-08-04T19:43:13;28.01;44.15
65478;SHT31;53678;39.642;22.430;2022-08-04T19:45:39;27.98;44.67
65478;SHT31;53678;39.642;22.430;2022-08-04T19:48:05;27.92;44.69
65478;SHT31;53678;39.642;22.430;2022-08-04T19:50:31;28.08;44.37
65478;SHT31;53678;39.642;22.430;2022-08-04T19:52:57;27.82;44.77
65478;SHT31;53678;39.642;22.430;2022-08-04T19:55:23;27.69;45.23
65478;SHT31;53678;39.642;22.430;2022-08-04T19:57:50;27.65;45.11
65478;SHT31;53678;39.642;22.430;2022-08-04T20:00:18;27.72;45.12
65478;SHT31;53678;39.642;22.430;2022-08-04T20:02:45;27.80;45.33
65478;SHT31;53678;39.642;22.430;2022-08-04T20:05:12;27.62;45.86
65478;SHT31;53678;39.642;22.430;2022-08-04T20:07:38;27.47;46.07
65478;SHT31;53678;39.642;22.430;2022-08-04T20:10:05;27.68;45.69
65478;SHT31;53678;39.642;22.430;2022-08-04T20:12:33;27.68;45.70
65478;SHT31;53678;39.642;22.430;2022-08-04T20:14:59;27.72;45.64
65478;SHT31;53678;39.642;22.430;2022-08-04T20:17:26;27.68;45.68
65478;SHT31;53678;39.642;22.430;2022-08-04T20:19:52;27.66;45.85
65478;SHT31;53678;39.642;22.430;2022-08-04T20:22:18;27.69;45.83
65478;SHT31;53678;39.642;22.430;2022-08-04T20:24:47;27.73;45.99
65478;SHT31;53678;39.642;22.430;2022-08-04T20:27:15;27.72;46.18
65478;SHT31;53678;39.642;22.430;2022-08-04T20:29:44;27.50;46.79